sensor_id;sensor_type;location;lat;lon;timestamp;P1;durP1;ratioP1;P2;durP2;ratioP2
52692;SDS011;68218;51.012;-1.648;2023-06-04T00:00:00;12.18;;;11.13;;
52692;SDS011;68218;51.012;-1.648;2023-06-04T00:02:25;14.15;;;13.15;;
52692;SDS011;68218;51.012;-1.648;2023-06-04T00:04:51;12.60;;;11.63;;
52692;SDS011;68218;51.012;-1.648;2023-06-04T00:07:16;11.98;;;11.07;;
52692;SDS011;68218;51.012;-1.648;2023-06-04T00:09:42;12.65;;;11.65;;
52692;SDS011;68218;51.012;-1.648;2023-06-04T00:12:07;11.65;;;10.75;;
52692;SDS011;68218;51.012;-1.648;2023-06-04T00:14:33;11.63;;;10.60;;
52692;SDS011;68218;51.012;-1.648;2023-06-04T00:16:58;11.45;;;10.55;;
52692;SDS011;68218;51.012;-1.648;2023-06-04T00:19:24;11.07;;;10.27;;
52692;SDS011;68218;51.012;-1.648;2023-06-04T00:21:49;11.77;;;10.98;;
52692;SDS011;68218;51.012;-1.648;2023-06-04T00:24:15;11.65;;;10.82;;
52692;SDS011;68218;51.012;-1.648;2023-06-04T00:26:41;13.68;;;12.77;;
52692;SDS011;68218;51.012;-1.648;2023-06-04T00:29:06;10.90;;;10.10;;
52692;SDS011;68218;51.012;-1.648;2023-06-04T00:31:32;14.85;;;13.38;;
52692;SDS011;68218;51.012;-1.648;2023-06-04T00:33:57;14.02;;;13.07;;
52692;SDS011;68218;51.012;-1.648;2023-06-04T00:36:23;13.23;;;12.35;;
52692;SDS011;68218;51.012;-1.648;2023-06-04T00:38:48;11.32;;;10.43;;
52692;SDS011;68218;51.012;-1.648;2023-06-04T00:41:13;11.95;;;11.00;;
52692;SDS011;68218;51.012;-1.648;2023-06-04T00:43:39;11.85;;;11.05;;
52692;SDS011;68218;51.012;-1.648;2023-06-04T00:46:05;12.25;;;11.20;;
52692;SDS011;68218;51.012;-1.648;2023-06-04T00:48:31;15.18;;;13.82;;
52692;SDS011;68218;51.012;-1.648;2023-06-04T00:50:57;12.23;;;11.15;;
52692;SDS011;68218;51.012;-1.648;2023-06-04T00:53:24;13.40;;;10.88;;
52692;SDS011;68218;51.012;-1.648;2023-06-04T00:55:51;12.07;;;11.00;;
52692;SDS011;68218;51.012;-1.648;2023-06-04T00:58:16;11.65;;;10.75;;
52692;SDS011;68218;51.012;-1.648;2023-06-04T01:00:42;13.65;;;12.75;;
52692;SDS011;68218;51.012;-1.648;2023-06-04T01:03:18;10.63;;;9.93;;
52692;SDS011;68218;51.012;-1.648;2023-06-04T01:05:51;13.63;;;12.75;;
52692;SDS011;68218;51.012;-1.648;2023-06-04T01:08:29;12.18;;;11.15;;
52692;SDS011;68218;51.012;-1.648;2023-06-04T01:10:56;15.02;;;13.77;;
52692;SDS011;68218;51.012;-1.648;2023-06-04T01:13:22;12.85;;;10.45;;
52692;SDS011;68218;51.012;-1.648;2023-06-04T01:15:48;11.30;;;10.57;;
52692;SDS011;68218;51.012;-1.648;2023-06-04T01:18:15;11.25;;;10.32;;
52692;SDS011;68218;51.012;-1.648;2023-06-04T01:20:53;11.18;;;10.15;;
52692;SDS011;68218;51.012;-1.648;2023-06-04T01:26:01;11.05;;;10.35;;
52692;SDS011;68218;51.012;-1.648;2023-06-04T01:28:30;14.30;;;13.35;;
52692;SDS011;68218;51.012;-1.648;2023-06-04T01:30:58;13.27;;;11.73;;
52692;SDS011;68218;51.012;-1.648;2023-06-04T01:33:26;12.65;;;11.45;;
52692;SDS011;68218;51.012;-1.648;2023-06-04T01:35:52;10.73;;;10.02;;
52692;SDS011;68218;51.012;-1.648;2023-06-04T01:38:18;14.43;;;13.43;;
52692;SDS011;68218;51.012;-1.648;2023-06-04T01:40:43;12.25;;;11.13;;
52692;SDS011;68218;51.012;-1.648;2023-06-04T01:43:10;14.45;;;13.38;;
52692;SDS011;68218;51.012;-1.648;2023-06-04T01:45:36;11.30;;;10.27;;
52692;SDS011;68218;51.012;-1.648;2023-06-04T01:48:02;11.27;;;10.35;;
52692;SDS011;68218;51.012;-1.648;2023-06-04T01:50:28;14.55;;;13.40;;
52692;SDS011;68218;51.012;-1.648;2023-06-04T01:52:53;13.63;;;12.65;;
52692;SDS011;68218;51.012;-1.648;2023-06-04T01:55:19;11.07;;;10.18;;
52692;SDS011;68218;51.012;-1.648;2023-06-04T01:57:45;10.70;;;10.00;;
52692;SDS011;68218;51.012;-1.648;2023-06-04T02:00:15;10.95;;;10.00;;
52692;SDS011;68218;51.012;-1.648;2023-06-04T02:02:41;11.15;;;10.40;;
52692;SDS011;68218;51.012;-1.648;2023-06-04T02:05:08;11.15;;;10.35;;
52692;SDS011;68218;51.012;-1.648;2023-06-04T02:07:34;10.60;;;9.80;;
52692;SDS011;68218;51.012;-1.648;2023-06-04T02:10:03;10.63;;;9.93;;
52692;SDS011;68218;51.012;-1.648;2023-06-04T02:12:38;10.95;;;10.15;;
52692;SDS011;68218;51.012;-1.648;2023-06-04T02:15:05;10.90;;;9.98;;
52692;SDS011;68218;51.012;-1.648;2023-06-04T02:17:32;10.30;;;9.60;;
52692;SDS011;68218;51.012;-1.648;2023-06-04T02:19:58;13.13;;;12.25;;
52692;SDS011;68218;51.012;-1.648;2023-06-04T02:22:24;11.30;;;10.60;;
52692;SDS011;68218;51.012;-1.648;2023-06-04T02:24:50;10.40;;;9.70;;
52692;SDS011;68218;51.012;-1.648;2023-06-04T02:27:16;11.77;;;10.85;;
52692;SDS011;68218;51.012;-1.648;2023-06-04T02:29:42;11.32;;;10.43;;
52692;SDS011;68218;51.012;-1.648;2023-06-04T02:32:08;11.55;;;10.55;;
52692;SDS011;68218;51.012;-1.648;2023-06-04T02:34:34;10.57;;;9.88;;
52692;SDS011;68218;51.012;-1.648;2023-06-04T02:36:59;10.82;;;9.88;;
52692;SDS011;68218;51.012;-1.648;2023-06-04T02:39:25;13.55;;;12.65;;
52692;SDS011;68218;51.012;-1.648;2023-06-04T02:41:50;10.30;;;9.65;;
52692;SDS011;68218;51.012;-1.648;2023-06-04T02:44:16;10.63;;;9.82;;
52692;SDS011;68218;51.012;-1.648;2023-06-04T02:46:42;11.32;;;10.52;;
52692;SDS011;68218;51.012;-1.648;2023-06-04T02:49:07;10.60;;;9.90;;
52692;SDS011;68218;51.012;-1.648;2023-06-04T02:51:32;10.30;;;9.65;;
52692;SDS011;68218;51.012;-1.648;2023-06-04T02:53:58;10.50;;;9.73;;
52692;SDS011;68218;51.012;-1.648;2023-06-04T02:56:24;11.32;;;10.32;;
52692;SDS011;68218;51.012;-1.648;2023-06-04T02:58:53;13.20;;;12.15;;
52692;SDS011;68218;51.012;-1.648;2023-06-04T03:01:24;11.48;;;10.15;;
52692;SDS011;68218;51.012;-1.648;2023-06-04T03:03:51;10.70;;;9.98;;
52692;SDS011;68218;51.012;-1.648;2023-06-04T03:06:18;11.27;;;9.68;;
52692;SDS011;68218;51.012;-1.648;2023-06-04T03:08:45;13.07;;;11.98;;
52692;SDS011;68218;51.012;-1.648;2023-06-04T03:11:11;10.77;;;9.90;;
52692;SDS011;68218;51.012;-1.648;2023-06-04T03:13:37;10.32;;;9.45;;
52692;SDS011;68218;51.012;-1.648;2023-06-04T03:16:03;9.93;;;8.98;;
52692;SDS011;68218;51.012;-1.648;2023-06-04T03:18:34;11.38;;;10.40;;
52692;SDS011;68218;51.012;-1.648;2023-06-04T03:21:04;10.35;;;9.65;;
52692;SDS011;68218;51.012;-1.648;2023-06-04T03:23:30;10.50;;;9.75;;
52692;SDS011;68218;51.012;-1.648;2023-06-04T03:25:57;10.43;;;9.48;;
52692;SDS011;68218;51.012;-1.648;2023-06-04T03:28:22;10.38;;;9.57;;
52692;SDS011;68218;51.012;-1.648;2023-06-04T03:30:48;10.95;;;10.05;;
52692;SDS011;68218;51.012;-1.648;2023-06-04T03:33:13;13.63;;;12.50;;
52692;SDS011;68218;51.012;-1.648;2023-06-04T03:35:41;11.57;;;10.00;;
52692;SDS011;68218;51.012;-1.648;2023-06-04T03:38:07;11.85;;;9.63;;
52692;SDS011;68218;51.012;-1.648;2023-06-04T03:40:32;13.20;;;12.38;;
52692;SDS011;68218;51.012;-1.648;2023-06-04T03:42:58;11.23;;;10.43;;
52692;SDS011;68218;51.012;-1.648;2023-06-04T03:45:25;10.18;;;9.43;;
52692;SDS011;68218;51.012;-1.648;2023-06-04T03:47:50;11.48;;;10.23;;
52692;SDS011;68218;51.012;-1.648;2023-06-04T03:50:17;11.20;;;10.38;;
52692;SDS011;68218;51.012;-1.648;2023-06-04T03:52:45;10.35;;;9.57;;
52692;SDS011;68218;51.012;-1.648;2023-06-04T03:55:11;9.60;;;8.77;;
52692;SDS011;68218;51.012;-1.648;2023-06-04T03:57:36;9.18;;;8.57;;
52692;SDS011;68218;51.012;-1.648;2023-06-04T04:00:04;9.88;;;9.18;;
52692;SDS011;68218;51.012;-1.648;2023-06-04T04:02:34;10.23;;;9.35;;
52692;SDS011;68218;51.012;-1.648;2023-06-04T04:05:00;9.77;;;8.85;;
52692;SDS011;68218;51.012;-1.648;2023-06-04T04:07:26;9.27;;;8.63;;
52692;SDS011;68218;51.012;-1.648;2023-06-04T04:09:51;10.00;;;9.25;;
52692;SDS011;68218;51.012;-1.648;2023-06-04T04:12:17;9.10;;;8.43;;
52692;SDS011;68218;51.012;-1.648;2023-06-04T04:14:42;9.80;;;8.90;;
52692;SDS011;68218;51.012;-1.648;2023-06-04T04:17:08;10.43;;;9.52;;
52692;SDS011;68218;51.012;-1.648;2023-06-04T04:19:33;12.48;;;11.38;;
52692;SDS011;68218;51.012;-1.648;2023-06-04T04:21:59;14.75;;;9.10;;
52692;SDS011;68218;51.012;-1.648;2023-06-04T04:24:25;10.13;;;9.38;;
52692;SDS011;68218;51.012;-1.648;2023-06-04T04:26:54;9.65;;;8.98;;
52692;SDS011;68218;51.012;-1.648;2023-06-04T04:29:22;10.15;;;9.43;;
52692;SDS011;68218;51.012;-1.648;2023-06-04T04:31:53;9.90;;;9.30;;
52692;SDS011;68218;51.012;-1.648;2023-06-04T04:34:21;9.90;;;9.00;;
52692;SDS011;68218;51.012;-1.648;2023-06-04T04:36:48;9.50;;;8.85;;
52692;SDS011;68218;51.012;-1.648;2023-06-04T04:39:21;13.52;;;12.13;;
52692;SDS011;68218;51.012;-1.648;2023-06-04T04:41:47;11.32;;;10.43;;
52692;SDS011;68218;51.012;-1.648;2023-06-04T04:44:13;10.15;;;9.18;;
52692;SDS011;68218;51.012;-1.648;2023-06-04T04:46:38;10.18;;;9.48;;
52692;SDS011;68218;51.012;-1.648;2023-06-04T04:49:04;10.32;;;9.45;;
52692;SDS011;68218;51.012;-1.648;2023-06-04T04:51:29;10.30;;;9.35;;
52692;SDS011;68218;51.012;-1.648;2023-06-04T04:53:54;10.32;;;9.00;;
52692;SDS011;68218;51.012;-1.648;2023-06-04T04:58:47;11.75;;;10.95;;
52692;SDS011;68218;51.012;-1.648;2023-06-04T05:01:13;10.95;;;10.10;;
52692;SDS011;68218;51.012;-1.648;2023-06-04T05:03:39;10.45;;;9.82;;
52692;SDS011;68218;51.012;-1.648;2023-06-04T05:06:04;10.45;;;9.85;;
52692;SDS011;68218;51.012;-1.648;2023-06-04T05:08:29;11.02;;;10.02;;
52692;SDS011;68218;51.012;-1.648;2023-06-04T05:10:55;10.20;;;9.27;;
52692;SDS011;68218;51.012;-1.648;2023-06-04T05:13:20;10.43;;;9.63;;
52692;SDS011;68218;51.012;-1.648;2023-06-04T05:15:47;9.98;;;9.20;;
52692;SDS011;68218;51.012;-1.648;2023-06-04T05:18:13;10.02;;;9.23;;
52692;SDS011;68218;51.012;-1.648;2023-06-04T05:20:41;15.77;;;10.23;;
52692;SDS011;68218;51.012;-1.648;2023-06-04T05:23:06;10.32;;;9.50;;
52692;SDS011;68218;51.012;-1.648;2023-06-04T05:25:31;10.30;;;9.60;;
52692;SDS011;68218;51.012;-1.648;2023-06-04T05:27:57;11.35;;;10.65;;
52692;SDS011;68218;51.012;-1.648;2023-06-04T05:30:22;10.18;;;9.48;;
52692;SDS011;68218;51.012;-1.648;2023-06-04T05:32:48;10.45;;;9.77;;
52692;SDS011;68218;51.012;-1.648;2023-06-04T05:35:15;10.52;;;9.57;;
52692;SDS011;68218;51.012;-1.648;2023-06-04T05:37:41;10.75;;;9.65;;
52692;SDS011;68218;51.012;-1.648;2023-06-04T05:40:07;13.00;;;12.00;;
52692;SDS011;68218;51.012;-1.648;2023-06-04T05:42:33;10.70;;;9.65;;
52692;SDS011;68218;51.012;-1.648;2023-06-04T05:44:59;10.70;;;9.30;;
52692;SDS011;68218;51.012;-1.648;2023-06-04T05:47:25;9.43;;;8.77;;
52692;SDS011;68218;51.012;-1.648;2023-06-04T05:49:50;10.90;;;10.10;;
52692;SDS011;68218;51.012;-1.648;2023-06-04T05:52:15;10.00;;;9.23;;
52692;SDS011;68218;51.012;-1.648;2023-06-04T05:54:41;11.63;;;10.82;;
52692;SDS011;68218;51.012;-1.648;2023-06-04T05:57:06;10.25;;;9.40;;
52692;SDS011;68218;51.012;-1.648;2023-06-04T05:59:31;10.20;;;9.40;;
52692;SDS011;68218;51.012;-1.648;2023-06-04T06:01:57;10.55;;;9.65;;
52692;SDS011;68218;51.012;-1.648;2023-06-04T06:04:22;10.20;;;9.40;;
52692;SDS011;68218;51.012;-1.648;2023-06-04T06:06:48;10.60;;;9.80;;
52692;SDS011;68218;51.012;-1.648;2023-06-04T06:09:14;10.05;;;9.27;;
52692;SDS011;68218;51.012;-1.648;2023-06-04T06:11:41;9.88;;;9.18;;
52692;SDS011;68218;51.012;-1.648;2023-06-04T06:14:06;10.07;;;9.38;;
52692;SDS011;68218;51.012;-1.648;2023-06-04T06:16:32;10.30;;;9.38;;
52692;SDS011;68218;51.012;-1.648;2023-06-04T06:18:57;9.60;;;9.00;;
52692;SDS011;68218;51.012;-1.648;2023-06-04T06:21:23;10.38;;;9.57;;
52692;SDS011;68218;51.012;-1.648;2023-06-04T06:23:49;10.55;;;9.70;;
52692;SDS011;68218;51.012;-1.648;2023-06-04T06:26:14;10.75;;;9.57;;
52692;SDS011;68218;51.012;-1.648;2023-06-04T06:28:41;10.60;;;9.88;;
52692;SDS011;68218;51.012;-1.648;2023-06-04T06:31:06;9.77;;;8.98;;
52692;SDS011;68218;51.012;-1.648;2023-06-04T06:33:32;10.68;;;9.73;;
52692;SDS011;68218;51.012;-1.648;2023-06-04T06:35:57;10.68;;;9.88;;
52692;SDS011;68218;51.012;-1.648;2023-06-04T06:38:26;9.60;;;8.90;;
52692;SDS011;68218;51.012;-1.648;2023-06-04T06:40:52;9.45;;;8.75;;
52692;SDS011;68218;51.012;-1.648;2023-06-04T06:43:17;10.93;;;9.98;;
52692;SDS011;68218;51.012;-1.648;2023-06-04T06:45:43;10.40;;;9.70;;
52692;SDS011;68218;51.012;-1.648;2023-06-04T06:48:08;12.35;;;11.55;;
52692;SDS011;68218;51.012;-1.648;2023-06-04T06:50:34;12.15;;;11.18;;
52692;SDS011;68218;51.012;-1.648;2023-06-04T06:53:01;9.85;;;9.15;;
52692;SDS011;68218;51.012;-1.648;2023-06-04T06:55:27;12.68;;;11.55;;
52692;SDS011;68218;51.012;-1.648;2023-06-04T06:57:52;12.48;;;11.57;;
52692;SDS011;68218;51.012;-1.648;2023-06-04T07:00:17;13.18;;;12.10;;
52692;SDS011;68218;51.012;-1.648;2023-06-04T07:02:43;11.43;;;10.45;;
52692;SDS011;68218;51.012;-1.648;2023-06-04T07:05:09;10.70;;;10.00;;
52692;SDS011;68218;51.012;-1.648;2023-06-04T07:07:35;18.90;;;17.05;;
52692;SDS011;68218;51.012;-1.648;2023-06-04T07:10:01;14.88;;;13.55;;
52692;SDS011;68218;51.012;-1.648;2023-06-04T07:12:28;12.10;;;11.10;;
52692;SDS011;68218;51.012;-1.648;2023-06-04T07:14:54;15.07;;;14.07;;
52692;SDS011;68218;51.012;-1.648;2023-06-04T07:17:19;13.95;;;12.95;;
52692;SDS011;68218;51.012;-1.648;2023-06-04T07:19:46;15.88;;;14.70;;
52692;SDS011;68218;51.012;-1.648;2023-06-04T07:22:11;14.25;;;13.18;;
52692;SDS011;68218;51.012;-1.648;2023-06-04T07:24:37;13.93;;;12.90;;
52692;SDS011;68218;51.012;-1.648;2023-06-04T07:27:09;18.38;;;17.05;;
52692;SDS011;68218;51.012;-1.648;2023-06-04T07:29:35;17.15;;;14.73;;
52692;SDS011;68218;51.012;-1.648;2023-06-04T07:32:01;18.63;;;17.35;;
52692;SDS011;68218;51.012;-1.648;2023-06-04T07:34:26;16.77;;;15.65;;
52692;SDS011;68218;51.012;-1.648;2023-06-04T07:36:51;21.52;;;17.00;;
52692;SDS011;68218;51.012;-1.648;2023-06-04T07:39:17;19.27;;;17.98;;
52692;SDS011;68218;51.012;-1.648;2023-06-04T07:41:42;16.90;;;15.80;;
52692;SDS011;68218;51.012;-1.648;2023-06-04T07:44:08;19.38;;;17.98;;
52692;SDS011;68218;51.012;-1.648;2023-06-04T07:46:33;19.77;;;18.38;;
52692;SDS011;68218;51.012;-1.648;2023-06-04T07:48:58;16.88;;;15.48;;
52692;SDS011;68218;51.012;-1.648;2023-06-04T07:51:24;16.48;;;15.18;;
52692;SDS011;68218;51.012;-1.648;2023-06-04T07:53:50;12.98;;;11.90;;
52692;SDS011;68218;51.012;-1.648;2023-06-04T07:56:16;18.55;;;17.25;;
52692;SDS011;68218;51.012;-1.648;2023-06-04T07:58:41;19.15;;;17.85;;
52692;SDS011;68218;51.012;-1.648;2023-06-04T08:01:06;18.33;;;17.10;;
52692;SDS011;68218;51.012;-1.648;2023-06-04T08:03:32;14.45;;;13.35;;
52692;SDS011;68218;51.012;-1.648;2023-06-04T08:05:57;10.73;;;9.93;;
52692;SDS011;68218;51.012;-1.648;2023-06-04T08:08:23;13.07;;;12.07;;
52692;SDS011;68218;51.012;-1.648;2023-06-04T08:10:48;14.05;;;12.75;;
52692;SDS011;68218;51.012;-1.648;2023-06-04T08:13:13;13.75;;;12.75;;
52692;SDS011;68218;51.012;-1.648;2023-06-04T08:15:39;11.80;;;10.80;;
52692;SDS011;68218;51.012;-1.648;2023-06-04T08:18:04;13.15;;;12.25;;
52692;SDS011;68218;51.012;-1.648;2023-06-04T08:20:29;12.50;;;10.05;;
52692;SDS011;68218;51.012;-1.648;2023-06-04T08:22:55;12.60;;;11.60;;
52692;SDS011;68218;51.012;-1.648;2023-06-04T08:25:20;14.07;;;12.95;;
52692;SDS011;68218;51.012;-1.648;2023-06-04T08:27:46;12.73;;;11.82;;
52692;SDS011;68218;51.012;-1.648;2023-06-04T08:30:11;12.25;;;11.35;;
52692;SDS011;68218;51.012;-1.648;2023-06-04T08:32:36;16.38;;;15.27;;
52692;SDS011;68218;51.012;-1.648;2023-06-04T08:35:02;17.15;;;15.93;;
52692;SDS011;68218;51.012;-1.648;2023-06-04T08:37:28;17.98;;;16.75;;
52692;SDS011;68218;51.012;-1.648;2023-06-04T08:39:53;12.73;;;11.68;;
52692;SDS011;68218;51.012;-1.648;2023-06-04T08:42:22;12.98;;;11.95;;
52692;SDS011;68218;51.012;-1.648;2023-06-04T08:44:52;13.50;;;12.18;;
52692;SDS011;68218;51.012;-1.648;2023-06-04T08:47:18;13.77;;;12.68;;
52692;SDS011;68218;51.012;-1.648;2023-06-04T08:49:45;12.32;;;11.32;;
52692;SDS011;68218;51.012;-1.648;2023-06-04T08:52:15;13.63;;;12.63;;
52692;SDS011;68218;51.012;-1.648;2023-06-04T08:54:41;13.00;;;12.10;;
52692;SDS011;68218;51.012;-1.648;2023-06-04T08:57:06;14.05;;;12.93;;
52692;SDS011;68218;51.012;-1.648;2023-06-04T08:59:33;10.88;;;10.00;;
52692;SDS011;68218;51.012;-1.648;2023-06-04T09:01:59;14.82;;;13.82;;
52692;SDS011;68218;51.012;-1.648;2023-06-04T09:04:25;13.52;;;12.27;;
52692;SDS011;68218;51.012;-1.648;2023-06-04T09:06:51;11.10;;;10.30;;
52692;SDS011;68218;51.012;-1.648;2023-06-04T09:09:18;10.77;;;9.98;;
52692;SDS011;68218;51.012;-1.648;2023-06-04T09:11:55;12.70;;;11.57;;
52692;SDS011;68218;51.012;-1.648;2023-06-04T09:14:22;11.43;;;10.30;;
52692;SDS011;68218;51.012;-1.648;2023-06-04T09:16:51;13.60;;;12.50;;
52692;SDS011;68218;51.012;-1.648;2023-06-04T09:19:18;12.95;;;11.98;;
52692;SDS011;68218;51.012;-1.648;2023-06-04T09:21:51;13.50;;;12.50;;
52692;SDS011;68218;51.012;-1.648;2023-06-04T09:24:21;12.35;;;11.40;;
52692;SDS011;68218;51.012;-1.648;2023-06-04T09:26:51;13.38;;;12.43;;
52692;SDS011;68218;51.012;-1.648;2023-06-04T09:29:17;12.75;;;11.85;;
52692;SDS011;68218;51.012;-1.648;2023-06-04T09:31:46;10.35;;;9.57;;
52692;SDS011;68218;51.012;-1.648;2023-06-04T09:34:12;12.60;;;11.40;;
52692;SDS011;68218;51.012;-1.648;2023-06-04T09:36:39;13.15;;;12.25;;
52692;SDS011;68218;51.012;-1.648;2023-06-04T09:39:14;13.13;;;11.95;;
52692;SDS011;68218;51.012;-1.648;2023-06-04T09:41:43;13.32;;;12.43;;
52692;SDS011;68218;51.012;-1.648;2023-06-04T09:44:08;13.65;;;12.75;;
52692;SDS011;68218;51.012;-1.648;2023-06-04T09:46:35;13.65;;;12.55;;
52692;SDS011;68218;51.012;-1.648;2023-06-04T09:49:02;13.70;;;12.70;;
52692;SDS011;68218;51.012;-1.648;2023-06-04T09:51:29;13.10;;;12.20;;
52692;SDS011;68218;51.012;-1.648;2023-06-04T09:53:56;13.10;;;12.25;;
52692;SDS011;68218;51.012;-1.648;2023-06-04T09:56:23;14.00;;;12.98;;
52692;SDS011;68218;51.012;-1.648;2023-06-04T09:58:48;13.60;;;12.60;;
52692;SDS011;68218;51.012;-1.648;2023-06-04T10:01:14;13.48;;;12.38;;
52692;SDS011;68218;51.012;-1.648;2023-06-04T10:03:40;13.48;;;12.48;;
52692;SDS011;68218;51.012;-1.648;2023-06-04T10:06:11;14.45;;;13.45;;
52692;SDS011;68218;51.012;-1.648;2023-06-04T10:08:40;14.15;;;13.15;;
52692;SDS011;68218;51.012;-1.648;2023-06-04T10:11:07;13.98;;;12.95;;
52692;SDS011;68218;51.012;-1.648;2023-06-04T10:14:17;13.02;;;12.13;;
52692;SDS011;68218;51.012;-1.648;2023-06-04T10:16:27;14.15;;;13.10;;
52692;SDS011;68218;51.012;-1.648;2023-06-04T10:18:55;13.45;;;12.45;;
52692;SDS011;68218;51.012;-1.648;2023-06-04T10:21:21;13.32;;;12.43;;
52692;SDS011;68218;51.012;-1.648;2023-06-04T10:23:48;12.85;;;12.05;;
52692;SDS011;68218;51.012;-1.648;2023-06-04T10:26:15;14.60;;;13.57;;
52692;SDS011;68218;51.012;-1.648;2023-06-04T10:28:42;14.27;;;13.18;;
52692;SDS011;68218;51.012;-1.648;2023-06-04T10:31:11;12.90;;;12.00;;
52692;SDS011;68218;51.012;-1.648;2023-06-04T10:33:39;13.07;;;12.18;;
52692;SDS011;68218;51.012;-1.648;2023-06-04T10:36:17;13.27;;;12.35;;
52692;SDS011;68218;51.012;-1.648;2023-06-04T10:41:14;11.43;;;10.63;;
52692;SDS011;68218;51.012;-1.648;2023-06-04T10:43:46;14.23;;;13.32;;
52692;SDS011;68218;51.012;-1.648;2023-06-04T10:46:16;14.00;;;13.10;;
52692;SDS011;68218;51.012;-1.648;2023-06-04T10:48:49;14.15;;;12.88;;
52692;SDS011;68218;51.012;-1.648;2023-06-04T10:51:16;12.75;;;11.82;;
52692;SDS011;68218;51.012;-1.648;2023-06-04T10:53:56;13.55;;;12.45;;
52692;SDS011;68218;51.012;-1.648;2023-06-04T10:56:29;13.25;;;12.35;;
52692;SDS011;68218;51.012;-1.648;2023-06-04T10:58:57;13.50;;;12.60;;
52692;SDS011;68218;51.012;-1.648;2023-06-04T11:01:27;12.30;;;11.32;;
52692;SDS011;68218;51.012;-1.648;2023-06-04T11:03:57;11.63;;;10.82;;
52692;SDS011;68218;51.012;-1.648;2023-06-04T11:06:23;15.75;;;14.70;;
52692;SDS011;68218;51.012;-1.648;2023-06-04T11:09:14;20.50;;;18.73;;
52692;SDS011;68218;51.012;-1.648;2023-06-04T11:11:41;14.75;;;13.65;;
52692;SDS011;68218;51.012;-1.648;2023-06-04T11:14:10;14.32;;;13.32;;
52692;SDS011;68218;51.012;-1.648;2023-06-04T11:16:37;15.05;;;13.98;;
52692;SDS011;68218;51.012;-1.648;2023-06-04T11:19:03;14.45;;;13.45;;
52692;SDS011;68218;51.012;-1.648;2023-06-04T11:21:29;19.70;;;18.40;;
52692;SDS011;68218;51.012;-1.648;2023-06-04T11:23:57;23.27;;;21.77;;
52692;SDS011;68218;51.012;-1.648;2023-06-04T11:26:29;22.90;;;21.48;;
52692;SDS011;68218;51.012;-1.648;2023-06-04T11:28:55;22.27;;;20.67;;
52692;SDS011;68218;51.012;-1.648;2023-06-04T11:31:21;19.98;;;18.60;;
52692;SDS011;68218;51.012;-1.648;2023-06-04T11:33:47;14.18;;;13.13;;
52692;SDS011;68218;51.012;-1.648;2023-06-04T11:36:25;14.57;;;13.57;;
52692;SDS011;68218;51.012;-1.648;2023-06-04T11:38:58;15.02;;;13.70;;
52692;SDS011;68218;51.012;-1.648;2023-06-04T11:41:32;14.13;;;13.13;;
52692;SDS011;68218;51.012;-1.648;2023-06-04T11:44:03;12.07;;;11.27;;
52692;SDS011;68218;51.012;-1.648;2023-06-04T11:46:34;14.13;;;13.13;;
52692;SDS011;68218;51.012;-1.648;2023-06-04T11:49:05;14.18;;;13.18;;
52692;SDS011;68218;51.012;-1.648;2023-06-04T11:51:31;13.88;;;12.95;;
52692;SDS011;68218;51.012;-1.648;2023-06-04T11:53:58;15.35;;;14.25;;
52692;SDS011;68218;51.012;-1.648;2023-06-04T11:56:23;12.40;;;11.50;;
52692;SDS011;68218;51.012;-1.648;2023-06-04T11:58:50;14.52;;;13.43;;
52692;SDS011;68218;51.012;-1.648;2023-06-04T12:01:17;14.63;;;13.63;;
52692;SDS011;68218;51.012;-1.648;2023-06-04T12:03:43;14.32;;;13.23;;
52692;SDS011;68218;51.012;-1.648;2023-06-04T12:06:15;14.52;;;13.52;;
52692;SDS011;68218;51.012;-1.648;2023-06-04T12:08:45;14.57;;;13.55;;
52692;SDS011;68218;51.012;-1.648;2023-06-04T12:11:33;14.38;;;13.27;;
52692;SDS011;68218;51.012;-1.648;2023-06-04T12:13:58;13.43;;;12.43;;
52692;SDS011;68218;51.012;-1.648;2023-06-04T12:16:26;12.68;;;11.77;;
52692;SDS011;68218;51.012;-1.648;2023-06-04T12:18:52;11.98;;;11.07;;
52692;SDS011;68218;51.012;-1.648;2023-06-04T12:21:29;16.85;;;15.27;;
52692;SDS011;68218;51.012;-1.648;2023-06-04T12:24:10;15.32;;;14.23;;
52692;SDS011;68218;51.012;-1.648;2023-06-04T12:26:38;15.32;;;14.27;;
52692;SDS011;68218;51.012;-1.648;2023-06-04T12:29:15;11.88;;;10.80;;
52692;SDS011;68218;51.012;-1.648;2023-06-04T12:31:44;15.23;;;14.23;;
52692;SDS011;68218;51.012;-1.648;2023-06-04T12:34:14;15.45;;;14.25;;
52692;SDS011;68218;51.012;-1.648;2023-06-04T12:36:39;13.93;;;13.02;;
52692;SDS011;68218;51.012;-1.648;2023-06-04T12:39:05;14.55;;;13.40;;
52692;SDS011;68218;51.012;-1.648;2023-06-04T12:41:32;14.30;;;13.30;;
52692;SDS011;68218;51.012;-1.648;2023-06-04T12:44:01;14.25;;;13.25;;
52692;SDS011;68218;51.012;-1.648;2023-06-04T12:46:26;15.15;;;14.13;;
52692;SDS011;68218;51.012;-1.648;2023-06-04T12:48:53;14.32;;;13.23;;
52692;SDS011;68218;51.012;-1.648;2023-06-04T12:51:19;14.88;;;13.88;;
52692;SDS011;68218;51.012;-1.648;2023-06-04T12:53:46;15.20;;;14.20;;
52692;SDS011;68218;51.012;-1.648;2023-06-04T12:56:12;15.45;;;14.40;;
52692;SDS011;68218;51.012;-1.648;2023-06-04T12:58:37;14.23;;;13.23;;
52692;SDS011;68218;51.012;-1.648;2023-06-04T13:01:03;14.85;;;13.70;;
52692;SDS011;68218;51.012;-1.648;2023-06-04T13:03:32;14.02;;;13.05;;
52692;SDS011;68218;51.012;-1.648;2023-06-04T13:05:58;12.18;;;11.27;;
52692;SDS011;68218;51.012;-1.648;2023-06-04T13:08:23;15.07;;;13.88;;
52692;SDS011;68218;51.012;-1.648;2023-06-04T13:10:50;14.85;;;13.75;;
52692;SDS011;68218;51.012;-1.648;2023-06-04T13:13:16;14.57;;;13.57;;
52692;SDS011;68218;51.012;-1.648;2023-06-04T13:15:42;14.98;;;13.88;;
52692;SDS011;68218;51.012;-1.648;2023-06-04T13:18:08;14.90;;;13.90;;
52692;SDS011;68218;51.012;-1.648;2023-06-04T13:20:35;14.27;;;13.27;;
52692;SDS011;68218;51.012;-1.648;2023-06-04T13:23:01;15.20;;;14.00;;
52692;SDS011;68218;51.012;-1.648;2023-06-04T13:25:26;15.18;;;14.18;;
52692;SDS011;68218;51.012;-1.648;2023-06-04T13:27:53;15.00;;;13.80;;
52692;SDS011;68218;51.012;-1.648;2023-06-04T13:30:19;15.35;;;14.25;;
52692;SDS011;68218;51.012;-1.648;2023-06-04T13:32:46;15.40;;;14.30;;
52692;SDS011;68218;51.012;-1.648;2023-06-04T13:35:11;15.63;;;14.57;;
52692;SDS011;68218;51.012;-1.648;2023-06-04T13:37:36;15.10;;;14.00;;
52692;SDS011;68218;51.012;-1.648;2023-06-04T13:40:02;14.73;;;13.73;;
52692;SDS011;68218;51.012;-1.648;2023-06-04T13:42:27;15.80;;;14.60;;
52692;SDS011;68218;51.012;-1.648;2023-06-04T13:44:53;17.00;;;15.55;;
52692;SDS011;68218;51.012;-1.648;2023-06-04T13:47:18;13.10;;;12.10;;
52692;SDS011;68218;51.012;-1.648;2023-06-04T13:49:44;15.32;;;14.23;;
52692;SDS011;68218;51.012;-1.648;2023-06-04T13:52:09;15.75;;;14.48;;
52692;SDS011;68218;51.012;-1.648;2023-06-04T13:54:35;13.13;;;12.13;;
52692;SDS011;68218;51.012;-1.648;2023-06-04T13:57:03;17.17;;;15.88;;
52692;SDS011;68218;51.012;-1.648;2023-06-04T13:59:29;19.98;;;18.45;;
52692;SDS011;68218;51.012;-1.648;2023-06-04T14:01:56;22.63;;;21.02;;
52692;SDS011;68218;51.012;-1.648;2023-06-04T14:04:21;23.25;;;21.55;;
52692;SDS011;68218;51.012;-1.648;2023-06-04T14:06:47;22.20;;;20.40;;
52692;SDS011;68218;51.012;-1.648;2023-06-04T14:09:12;23.63;;;21.77;;
52692;SDS011;68218;51.012;-1.648;2023-06-04T14:11:38;21.10;;;19.63;;
52692;SDS011;68218;51.012;-1.648;2023-06-04T14:14:04;23.55;;;21.77;;
52692;SDS011;68218;51.012;-1.648;2023-06-04T14:16:29;22.55;;;20.88;;
52692;SDS011;68218;51.012;-1.648;2023-06-04T14:18:54;22.15;;;20.55;;